sensor_id;sensor_type;location;lat;lon;timestamp;P1;durP1;ratioP1;P2;durP2;ratioP2
25511;SDS011;13414;44.534;18.700;2023-04-03T00:00:45;106.88;;;77.03;;
25511;SDS011;13414;44.534;18.700;2023-04-03T00:03:12;121.97;;;78.57;;
25511;SDS011;13414;44.534;18.700;2023-04-03T00:05:39;121.95;;;79.32;;
25511;SDS011;13414;44.534;18.700;2023-04-03T00:08:07;112.38;;;76.75;;
25511;SDS011;13414;44.534;18.700;2023-04-03T00:10:36;115.35;;;79.47;;
25511;SDS011;13414;44.534;18.700;2023-04-03T00:13:04;119.00;;;77.93;;
25511;SDS011;13414;44.534;18.700;2023-04-03T00:15:32;106.97;;;73.18;;
25511;SDS011;13414;44.534;18.700;2023-04-03T00:18:01;100.63;;;69.63;;
25511;SDS011;13414;44.534;18.700;2023-04-03T00:20:29;71.88;;;49.20;;
25511;SDS011;13414;44.534;18.700;2023-04-03T00:22:57;92.30;;;61.83;;
25511;SDS011;13414;44.534;18.700;2023-04-03T00:25:25;88.57;;;62.65;;
25511;SDS011;13414;44.534;18.700;2023-04-03T00:27:54;88.15;;;60.50;;
25511;SDS011;13414;44.534;18.700;2023-04-03T00:30:22;60.13;;;43.67;;
25511;SDS011;13414;44.534;18.700;2023-04-03T00:32:50;58.85;;;40.97;;
25511;SDS011;13414;44.534;18.700;2023-04-03T00:35:18;15.65;;;12.95;;
25511;SDS011;13414;44.534;18.700;2023-04-03T00:37:47;12.32;;;10.52;;
25511;SDS011;13414;44.534;18.700;2023-04-03T00:40:15;11.38;;;8.82;;
25511;SDS011;13414;44.534;18.700;2023-04-03T00:42:43;10.63;;;8.70;;
25511;SDS011;13414;44.534;18.700;2023-04-03T00:45:25;10.60;;;9.20;;
25511;SDS011;13414;44.534;18.700;2023-04-03T00:47:57;9.60;;;8.40;;
25511;SDS011;13414;44.534;18.700;2023-04-03T00:50:27;14.15;;;11.18;;
25511;SDS011;13414;44.534;18.700;2023-04-03T00:52:56;9.25;;;8.25;;
25511;SDS011;13414;44.534;18.700;2023-04-03T00:55:24;10.55;;;8.60;;
25511;SDS011;13414;44.534;18.700;2023-04-03T00:57:51;10.30;;;8.60;;
25511;SDS011;13414;44.534;18.700;2023-04-03T01:00:20;9.88;;;8.80;;
25511;SDS011;13414;44.534;18.700;2023-04-03T01:02:50;11.45;;;8.45;;
25511;SDS011;13414;44.534;18.700;2023-04-03T01:05:18;11.80;;;8.50;;
25511;SDS011;13414;44.534;18.700;2023-04-03T01:07:47;8.77;;;7.88;;
25511;SDS011;13414;44.534;18.700;2023-04-03T01:10:17;9.45;;;7.57;;
25511;SDS011;13414;44.534;18.700;2023-04-03T01:12:48;8.10;;;7.30;;
25511;SDS011;13414;44.534;18.700;2023-04-03T01:15:17;9.20;;;8.20;;
25511;SDS011;13414;44.534;18.700;2023-04-03T01:17:51;11.10;;;8.23;;
25511;SDS011;13414;44.534;18.700;2023-04-03T01:20:26;8.80;;;7.68;;
25511;SDS011;13414;44.534;18.700;2023-04-03T01:23:39;9.85;;;8.10;;
25511;SDS011;13414;44.534;18.700;2023-04-03T01:26:14;9.80;;;8.02;;
25511;SDS011;13414;44.534;18.700;2023-04-03T01:28:42;8.98;;;7.53;;
25511;SDS011;13414;44.534;18.700;2023-04-03T01:31:12;8.75;;;7.85;;
25511;SDS011;13414;44.534;18.700;2023-04-03T01:33:47;8.23;;;7.43;;
25511;SDS011;13414;44.534;18.700;2023-04-03T01:36:15;11.75;;;8.23;;
25511;SDS011;13414;44.534;18.700;2023-04-03T01:38:46;10.07;;;8.00;;
25511;SDS011;13414;44.534;18.700;2023-04-03T01:41:13;9.68;;;8.65;;
25511;SDS011;13414;44.534;18.700;2023-04-03T01:43:42;9.35;;;8.25;;
25511;SDS011;13414;44.534;18.700;2023-04-03T01:46:10;10.07;;;8.32;;
25511;SDS011;13414;44.534;18.700;2023-04-03T01:48:37;13.05;;;8.65;;
25511;SDS011;13414;44.534;18.700;2023-04-03T01:51:07;11.00;;;8.32;;
25511;SDS011;13414;44.534;18.700;2023-04-03T01:53:34;9.13;;;7.95;;
25511;SDS011;13414;44.534;18.700;2023-04-03T01:56:02;9.88;;;8.43;;
25511;SDS011;13414;44.534;18.700;2023-04-03T01:58:31;10.30;;;8.43;;
25511;SDS011;13414;44.534;18.700;2023-04-03T02:00:59;11.98;;;9.23;;
25511;SDS011;13414;44.534;18.700;2023-04-03T02:03:28;10.63;;;8.57;;
25511;SDS011;13414;44.534;18.700;2023-04-03T02:05:56;10.93;;;8.88;;
25511;SDS011;13414;44.534;18.700;2023-04-03T02:08:25;11.75;;;9.15;;
25511;SDS011;13414;44.534;18.700;2023-04-03T02:10:52;10.63;;;8.82;;
25511;SDS011;13414;44.534;18.700;2023-04-03T02:13:20;10.88;;;9.05;;
25511;SDS011;13414;44.534;18.700;2023-04-03T02:15:48;9.73;;;8.30;;
25511;SDS011;13414;44.534;18.700;2023-04-03T02:18:16;11.55;;;9.23;;
25511;SDS011;13414;44.534;18.700;2023-04-03T02:20:43;10.98;;;9.05;;
25511;SDS011;13414;44.534;18.700;2023-04-03T02:23:12;10.05;;;8.52;;
25511;SDS011;13414;44.534;18.700;2023-04-03T02:25:41;9.65;;;8.55;;
25511;SDS011;13414;44.534;18.700;2023-04-03T02:28:10;10.52;;;8.60;;
25511;SDS011;13414;44.534;18.700;2023-04-03T02:30:39;12.02;;;9.25;;
25511;SDS011;13414;44.534;18.700;2023-04-03T02:33:06;12.68;;;8.55;;
25511;SDS011;13414;44.534;18.700;2023-04-03T02:35:34;11.18;;;8.50;;
25511;SDS011;13414;44.534;18.700;2023-04-03T02:38:02;12.40;;;8.93;;
25511;SDS011;13414;44.534;18.700;2023-04-03T02:40:29;11.60;;;9.02;;
25511;SDS011;13414;44.534;18.700;2023-04-03T02:42:58;9.52;;;8.18;;
25511;SDS011;13414;44.534;18.700;2023-04-03T02:45:26;10.55;;;8.52;;
25511;SDS011;13414;44.534;18.700;2023-04-03T02:47:53;13.27;;;9.50;;
25511;SDS011;13414;44.534;18.700;2023-04-03T02:50:21;10.98;;;9.25;;
25511;SDS011;13414;44.534;18.700;2023-04-03T02:52:48;11.35;;;9.10;;
25511;SDS011;13414;44.534;18.700;2023-04-03T02:55:16;10.50;;;9.00;;
25511;SDS011;13414;44.534;18.700;2023-04-03T02:57:46;11.18;;;9.32;;
25511;SDS011;13414;44.534;18.700;2023-04-03T03:00:16;12.10;;;9.77;;
25511;SDS011;13414;44.534;18.700;2023-04-03T03:02:44;12.70;;;10.18;;
25511;SDS011;13414;44.534;18.700;2023-04-03T03:05:11;13.63;;;10.55;;
25511;SDS011;13414;44.534;18.700;2023-04-03T03:07:39;12.93;;;10.77;;
25511;SDS011;13414;44.534;18.700;2023-04-03T03:10:07;12.73;;;10.15;;
25511;SDS011;13414;44.534;18.700;2023-04-03T03:12:35;13.02;;;9.95;;
25511;SDS011;13414;44.534;18.700;2023-04-03T03:15:02;13.48;;;9.57;;
25511;SDS011;13414;44.534;18.700;2023-04-03T03:17:32;12.38;;;10.27;;
25511;SDS011;13414;44.534;18.700;2023-04-03T03:20:01;12.07;;;9.73;;
25511;SDS011;13414;44.534;18.700;2023-04-03T03:22:29;11.13;;;9.25;;
25511;SDS011;13414;44.534;18.700;2023-04-03T03:24:57;12.80;;;9.63;;
25511;SDS011;13414;44.534;18.700;2023-04-03T03:27:24;12.75;;;9.35;;
25511;SDS011;13414;44.534;18.700;2023-04-03T03:29:52;11.70;;;9.32;;
25511;SDS011;13414;44.534;18.700;2023-04-03T03:32:20;11.88;;;9.95;;
25511;SDS011;13414;44.534;18.700;2023-04-03T03:34:49;11.32;;;9.50;;
25511;SDS011;13414;44.534;18.700;2023-04-03T03:37:16;14.00;;;8.93;;
25511;SDS011;13414;44.534;18.700;2023-04-03T03:39:44;11.57;;;9.50;;
25511;SDS011;13414;44.534;18.700;2023-04-03T03:42:12;13.75;;;9.13;;
25511;SDS011;13414;44.534;18.700;2023-04-03T03:44:39;11.90;;;9.40;;
25511;SDS011;13414;44.534;18.700;2023-04-03T03:47:07;12.38;;;9.75;;
25511;SDS011;13414;44.534;18.700;2023-04-03T03:49:36;13.18;;;11.77;;
25511;SDS011;13414;44.534;18.700;2023-04-03T03:52:05;13.73;;;12.30;;
25511;SDS011;13414;44.534;18.700;2023-04-03T03:54:35;15.13;;;12.95;;
25511;SDS011;13414;44.534;18.700;2023-04-03T03:57:04;15.43;;;13.80;;
25511;SDS011;13414;44.534;18.700;2023-04-03T03:59:32;16.95;;;14.98;;
25511;SDS011;13414;44.534;18.700;2023-04-03T04:01:59;16.75;;;14.93;;
25511;SDS011;13414;44.534;18.700;2023-04-03T04:04:27;17.65;;;14.88;;
25511;SDS011;13414;44.534;18.700;2023-04-03T04:06:55;19.35;;;15.68;;
25511;SDS011;13414;44.534;18.700;2023-04-03T04:09:24;17.85;;;16.02;;
25511;SDS011;13414;44.534;18.700;2023-04-03T04:11:52;18.52;;;15.45;;
25511;SDS011;13414;44.534;18.700;2023-04-03T04:14:20;17.08;;;15.23;;
25511;SDS011;13414;44.534;18.700;2023-04-03T04:16:48;18.05;;;15.30;;
25511;SDS011;13414;44.534;18.700;2023-04-03T04:19:21;18.70;;;16.50;;
25511;SDS011;13414;44.534;18.700;2023-04-03T04:21:49;20.25;;;18.08;;
25511;SDS011;13414;44.534;18.700;2023-04-03T04:24:17;22.33;;;18.98;;
25511;SDS011;13414;44.534;18.700;2023-04-03T04:26:47;24.10;;;20.00;;
25511;SDS011;13414;44.534;18.700;2023-04-03T04:29:16;23.65;;;19.83;;
25511;SDS011;13414;44.534;18.700;2023-04-03T04:31:49;24.52;;;19.55;;
25511;SDS011;13414;44.534;18.700;2023-04-03T04:34:17;25.77;;;21.15;;
25511;SDS011;13414;44.534;18.700;2023-04-03T04:36:46;28.15;;;24.25;;
25511;SDS011;13414;44.534;18.700;2023-04-03T04:39:13;26.50;;;22.38;;
25511;SDS011;13414;44.534;18.700;2023-04-03T04:41:41;34.05;;;24.52;;
25511;SDS011;13414;44.534;18.700;2023-04-03T04:44:10;31.77;;;25.25;;
25511;SDS011;13414;44.534;18.700;2023-04-03T04:46:38;28.25;;;24.00;;
25511;SDS011;13414;44.534;18.700;2023-04-03T04:49:07;33.00;;;25.83;;
25511;SDS011;13414;44.534;18.700;2023-04-03T04:51:35;30.88;;;24.20;;
25511;SDS011;13414;44.534;18.700;2023-04-03T04:54:02;33.45;;;23.25;;
25511;SDS011;13414;44.534;18.700;2023-04-03T04:56:31;29.88;;;23.05;;
25511;SDS011;13414;44.534;18.700;2023-04-03T04:58:59;39.00;;;25.75;;
25511;SDS011;13414;44.534;18.700;2023-04-03T05:01:28;37.17;;;26.75;;
25511;SDS011;13414;44.534;18.700;2023-04-03T05:04:21;37.53;;;27.00;;
25511;SDS011;13414;44.534;18.700;2023-04-03T05:06:53;37.72;;;27.45;;
25511;SDS011;13414;44.534;18.700;2023-04-03T05:09:24;41.72;;;29.63;;
25511;SDS011;13414;44.534;18.700;2023-04-03T05:11:52;41.97;;;30.67;;
25511;SDS011;13414;44.534;18.700;2023-04-03T05:14:23;44.40;;;32.30;;
25511;SDS011;13414;44.534;18.700;2023-04-03T05:16:53;50.75;;;34.80;;
25511;SDS011;13414;44.534;18.700;2023-04-03T05:19:24;42.25;;;30.60;;
25511;SDS011;13414;44.534;18.700;2023-04-03T05:21:51;44.55;;;31.50;;
25511;SDS011;13414;44.534;18.700;2023-04-03T05:24:20;43.42;;;27.23;;
25511;SDS011;13414;44.534;18.700;2023-04-03T05:26:48;47.35;;;29.15;;
25511;SDS011;13414;44.534;18.700;2023-04-03T05:29:15;48.35;;;34.33;;
25511;SDS011;13414;44.534;18.700;2023-04-03T05:31:44;54.22;;;35.38;;
25511;SDS011;13414;44.534;18.700;2023-04-03T05:34:14;47.72;;;31.38;;
25511;SDS011;13414;44.534;18.700;2023-04-03T05:36:42;52.38;;;37.05;;
25511;SDS011;13414;44.534;18.700;2023-04-03T05:39:11;50.88;;;35.30;;
25511;SDS011;13414;44.534;18.700;2023-04-03T05:41:42;52.22;;;34.67;;
25511;SDS011;13414;44.534;18.700;2023-04-03T05:44:09;48.20;;;32.10;;
25511;SDS011;13414;44.534;18.700;2023-04-03T05:46:37;57.75;;;39.78;;
25511;SDS011;13414;44.534;18.700;2023-04-03T05:49:07;57.92;;;45.03;;
25511;SDS011;13414;44.534;18.700;2023-04-03T05:51:38;59.67;;;45.53;;
25511;SDS011;13414;44.534;18.700;2023-04-03T05:54:31;63.28;;;48.75;;
25511;SDS011;13414;44.534;18.700;2023-04-03T05:57:22;55.10;;;40.92;;
25511;SDS011;13414;44.534;18.700;2023-04-03T05:59:50;58.80;;;40.95;;
25511;SDS011;13414;44.534;18.700;2023-04-03T06:02:20;58.83;;;39.45;;
25511;SDS011;13414;44.534;18.700;2023-04-03T06:04:50;56.58;;;38.53;;
25511;SDS011;13414;44.534;18.700;2023-04-03T06:07:20;55.25;;;39.30;;
25511;SDS011;13414;44.534;18.700;2023-04-03T06:09:49;52.40;;;38.15;;
25511;SDS011;13414;44.534;18.700;2023-04-03T06:12:18;56.05;;;39.45;;
25511;SDS011;13414;44.534;18.700;2023-04-03T06:14:46;58.63;;;41.40;;
25511;SDS011;13414;44.534;18.700;2023-04-03T06:17:14;69.22;;;41.13;;
25511;SDS011;13414;44.534;18.700;2023-04-03T06:19:43;59.58;;;41.80;;
25511;SDS011;13414;44.534;18.700;2023-04-03T06:22:11;58.20;;;41.38;;
25511;SDS011;13414;44.534;18.700;2023-04-03T06:24:40;58.90;;;41.50;;
25511;SDS011;13414;44.534;18.700;2023-04-03T06:27:09;51.58;;;39.13;;
25511;SDS011;13414;44.534;18.700;2023-04-03T06:29:37;48.92;;;38.55;;
25511;SDS011;13414;44.534;18.700;2023-04-03T06:32:05;48.20;;;34.17;;
25511;SDS011;13414;44.534;18.700;2023-04-03T06:34:33;47.33;;;35.70;;
25511;SDS011;13414;44.534;18.700;2023-04-03T06:37:00;47.58;;;34.35;;
25511;SDS011;13414;44.534;18.700;2023-04-03T06:39:28;41.53;;;29.45;;
25511;SDS011;13414;44.534;18.700;2023-04-03T06:41:57;46.00;;;32.72;;
25511;SDS011;13414;44.534;18.700;2023-04-03T06:44:32;48.58;;;36.50;;
25511;SDS011;13414;44.534;18.700;2023-04-03T06:47:00;50.92;;;36.10;;
25511;SDS011;13414;44.534;18.700;2023-04-03T06:49:28;48.47;;;34.92;;
25511;SDS011;13414;44.534;18.700;2023-04-03T06:51:55;52.65;;;36.25;;
25511;SDS011;13414;44.534;18.700;2023-04-03T06:54:23;50.75;;;34.60;;
25511;SDS011;13414;44.534;18.700;2023-04-03T06:56:50;48.30;;;35.40;;
25511;SDS011;13414;44.534;18.700;2023-04-03T06:59:19;51.90;;;36.65;;
25511;SDS011;13414;44.534;18.700;2023-04-03T07:01:47;49.53;;;33.58;;
25511;SDS011;13414;44.534;18.700;2023-04-03T07:04:14;45.00;;;32.47;;
25511;SDS011;13414;44.534;18.700;2023-04-03T07:06:42;42.35;;;31.33;;
25511;SDS011;13414;44.534;18.700;2023-04-03T07:09:09;36.00;;;26.85;;
25511;SDS011;13414;44.534;18.700;2023-04-03T07:11:37;37.55;;;25.90;;
25511;SDS011;13414;44.534;18.700;2023-04-03T07:14:05;36.80;;;25.15;;
25511;SDS011;13414;44.534;18.700;2023-04-03T07:16:34;33.45;;;23.40;;
25511;SDS011;13414;44.534;18.700;2023-04-03T07:19:02;28.40;;;21.88;;
25511;SDS011;13414;44.534;18.700;2023-04-03T07:21:30;37.20;;;24.73;;
25511;SDS011;13414;44.534;18.700;2023-04-03T07:23:57;33.53;;;20.85;;
25511;SDS011;13414;44.534;18.700;2023-04-03T07:26:24;26.20;;;20.77;;
25511;SDS011;13414;44.534;18.700;2023-04-03T07:28:52;33.63;;;23.50;;
25511;SDS011;13414;44.534;18.700;2023-04-03T07:31:20;30.23;;;21.90;;
25511;SDS011;13414;44.534;18.700;2023-04-03T07:33:49;30.00;;;21.48;;
25511;SDS011;13414;44.534;18.700;2023-04-03T07:36:17;26.50;;;19.77;;
25511;SDS011;13414;44.534;18.700;2023-04-03T07:38:46;27.02;;;19.48;;
25511;SDS011;13414;44.534;18.700;2023-04-03T07:41:14;25.35;;;19.10;;
25511;SDS011;13414;44.534;18.700;2023-04-03T07:43:42;28.95;;;21.13;;
25511;SDS011;13414;44.534;18.700;2023-04-03T07:46:10;31.45;;;25.35;;
25511;SDS011;13414;44.534;18.700;2023-04-03T07:48:38;30.50;;;23.58;;
25511;SDS011;13414;44.534;18.700;2023-04-03T07:51:07;25.20;;;19.85;;
25511;SDS011;13414;44.534;18.700;2023-04-03T07:53:35;23.20;;;18.27;;
25511;SDS011;13414;44.534;18.700;2023-04-03T07:56:02;31.50;;;24.63;;
25511;SDS011;13414;44.534;18.700;2023-04-03T07:58:30;25.10;;;21.30;;
25511;SDS011;13414;44.534;18.700;2023-04-03T08:00:58;24.27;;;19.13;;
25511;SDS011;13414;44.534;18.700;2023-04-03T08:03:27;27.92;;;21.27;;
25511;SDS011;13414;44.534;18.700;2023-04-03T08:06:00;22.63;;;18.20;;
25511;SDS011;13414;44.534;18.700;2023-04-03T08:08:31;22.08;;;17.70;;
25511;SDS011;13414;44.534;18.700;2023-04-03T08:10:59;22.92;;;15.93;;
25511;SDS011;13414;44.534;18.700;2023-04-03T08:13:30;22.58;;;16.52;;
25511;SDS011;13414;44.534;18.700;2023-04-03T08:16:06;20.38;;;15.52;;
25511;SDS011;13414;44.534;18.700;2023-04-03T08:18:35;21.10;;;14.05;;
25511;SDS011;13414;44.534;18.700;2023-04-03T08:21:05;20.90;;;15.13;;
25511;SDS011;13414;44.534;18.700;2023-04-03T08:23:35;24.30;;;17.27;;
25511;SDS011;13414;44.534;18.700;2023-04-03T08:26:07;23.65;;;17.27;;
25511;SDS011;13414;44.534;18.700;2023-04-03T08:28:36;16.38;;;12.07;;
25511;SDS011;13414;44.534;18.700;2023-04-03T08:31:04;18.05;;;13.90;;
25511;SDS011;13414;44.534;18.700;2023-04-03T08:33:33;21.50;;;16.10;;
25511;SDS011;13414;44.534;18.700;2023-04-03T08:36:03;20.70;;;15.90;;
25511;SDS011;13414;44.534;18.700;2023-04-03T08:38:31;18.98;;;16.38;;
25511;SDS011;13414;44.534;18.700;2023-04-03T08:41:04;19.90;;;16.10;;
25511;SDS011;13414;44.534;18.700;2023-04-03T08:43:39;27.25;;;21.75;;
25511;SDS011;13414;44.534;18.700;2023-04-03T08:46:14;23.63;;;18.42;;
25511;SDS011;13414;44.534;18.700;2023-04-03T08:48:43;25.13;;;18.52;;
25511;SDS011;13414;44.534;18.700;2023-04-03T08:51:12;21.60;;;15.95;;
25511;SDS011;13414;44.534;18.700;2023-04-03T08:53:42;21.27;;;16.17;;
25511;SDS011;13414;44.534;18.700;2023-04-03T08:56:13;21.13;;;16.75;;
25511;SDS011;13414;44.534;18.700;2023-04-03T08:58:46;17.10;;;13.50;;
25511;SDS011;13414;44.534;18.700;2023-04-03T09:01:19;24.58;;;18.38;;
25511;SDS011;13414;44.534;18.700;2023-04-03T09:03:50;20.23;;;15.60;;
25511;SDS011;13414;44.534;18.700;2023-04-03T09:06:18;21.92;;;14.98;;
25511;SDS011;13414;44.534;18.700;2023-04-03T09:08:49;16.30;;;12.30;;
25511;SDS011;13414;44.534;18.700;2023-04-03T09:11:24;14.90;;;12.00;;
25511;SDS011;13414;44.534;18.700;2023-04-03T09:13:54;14.05;;;12.43;;
25511;SDS011;13414;44.534;18.700;2023-04-03T09:16:29;14.27;;;11.98;;
25511;SDS011;13414;44.534;18.700;2023-04-03T09:19:07;12.85;;;9.82;;
25511;SDS011;13414;44.534;18.700;2023-04-03T09:21:43;32.88;;;19.58;;
25511;SDS011;13414;44.534;18.700;2023-04-03T09:24:12;12.85;;;9.48;;
25511;SDS011;13414;44.534;18.700;2023-04-03T09:26:43;15.65;;;10.32;;
25511;SDS011;13414;44.534;18.700;2023-04-03T09:29:17;12.63;;;9.55;;
25511;SDS011;13414;44.534;18.700;2023-04-03T09:31:48;12.77;;;9.23;;
25511;SDS011;13414;44.534;18.700;2023-04-03T09:34:18;13.05;;;9.57;;
25511;SDS011;13414;44.534;18.700;2023-04-03T09:36:49;19.95;;;9.95;;
25511;SDS011;13414;44.534;18.700;2023-04-03T09:39:18;7.75;;;4.50;;
25511;SDS011;13414;44.534;18.700;2023-04-03T09:41:59;7.40;;;4.35;;
25511;SDS011;13414;44.534;18.700;2023-04-03T09:44:29;7.22;;;4.00;;
25511;SDS011;13414;44.534;18.700;2023-04-03T09:46:58;7.05;;;4.38;;
25511;SDS011;13414;44.534;18.700;2023-04-03T09:49:26;5.65;;;3.30;;
25511;SDS011;13414;44.534;18.700;2023-04-03T09:51:53;8.52;;;4.80;;
25511;SDS011;13414;44.534;18.700;2023-04-03T09:54:26;8.38;;;5.10;;
25511;SDS011;13414;44.534;18.700;2023-04-03T09:57:06;9.57;;;5.50;;
25511;SDS011;13414;44.534;18.700;2023-04-03T10:02:28;10.20;;;6.63;;
25511;SDS011;13414;44.534;18.700;2023-04-03T10:05:03;11.73;;;6.40;;
25511;SDS011;13414;44.534;18.700;2023-04-03T10:07:52;7.40;;;4.45;;
25511;SDS011;13414;44.534;18.700;2023-04-03T10:10:33;6.07;;;3.40;;
25511;SDS011;13414;44.534;18.700;2023-04-03T10:13:06;6.00;;;3.97;;
25511;SDS011;13414;44.534;18.700;2023-04-03T10:15:39;10.00;;;4.75;;
25511;SDS011;13414;44.534;18.700;2023-04-03T10:18:15;5.88;;;3.22;;
25511;SDS011;13414;44.534;18.700;2023-04-03T10:20:59;6.93;;;4.43;;
25511;SDS011;13414;44.534;18.700;2023-04-03T10:23:33;7.75;;;4.15;;
25511;SDS011;13414;44.534;18.700;2023-04-03T10:26:15;9.13;;;4.88;;
25511;SDS011;13414;44.534;18.700;2023-04-03T10:28:53;8.80;;;4.80;;
25511;SDS011;13414;44.534;18.700;2023-04-03T10:31:29;5.30;;;2.95;;
25511;SDS011;13414;44.534;18.700;2023-04-03T10:34:03;9.25;;;2.67;;
25511;SDS011;13414;44.534;18.700;2023-04-03T10:36:38;5.72;;;2.40;;
25511;SDS011;13414;44.534;18.700;2023-04-03T10:39:15;5.90;;;2.80;;
25511;SDS011;13414;44.534;18.700;2023-04-03T10:41:53;3.50;;;1.98;;
25511;SDS011;13414;44.534;18.700;2023-04-03T10:44:31;4.38;;;2.42;;
25511;SDS011;13414;44.534;18.700;2023-04-03T10:47:10;4.60;;;2.83;;
25511;SDS011;13414;44.534;18.700;2023-04-03T10:49:50;5.43;;;3.17;;
25511;SDS011;13414;44.534;18.700;2023-04-03T10:52:29;5.72;;;3.20;;
25511;SDS011;13414;44.534;18.700;2023-04-03T10:55:06;5.25;;;2.70;;
25511;SDS011;13414;44.534;18.700;2023-04-03T10:57:50;6.35;;;3.10;;
25511;SDS011;13414;44.534;18.700;2023-04-03T11:00:24;7.43;;;4.35;;
25511;SDS011;13414;44.534;18.700;2023-04-03T11:02:58;5.78;;;2.92;;
25511;SDS011;13414;44.534;18.700;2023-04-03T11:05:30;6.57;;;3.22;;
25511;SDS011;13414;44.534;18.700;2023-04-03T11:08:03;4.35;;;2.55;;
25511;SDS011;13414;44.534;18.700;2023-04-03T11:10:36;6.78;;;3.00;;
25511;SDS011;13414;44.534;18.700;2023-04-03T11:13:08;8.10;;;3.80;;
25511;SDS011;13414;44.534;18.700;2023-04-03T11:15:42;6.38;;;2.85;;
25511;SDS011;13414;44.534;18.700;2023-04-03T11:18:21;3.88;;;2.30;;
25511;SDS011;13414;44.534;18.700;2023-04-03T11:21:12;5.65;;;2.58;;
25511;SDS011;13414;44.534;18.700;2023-04-03T11:23:44;6.15;;;4.10;;
25511;SDS011;13414;44.534;18.700;2023-04-03T11:26:13;9.80;;;5.40;;
25511;SDS011;13414;44.534;18.700;2023-04-03T11:28:43;8.32;;;5.50;;
25511;SDS011;13414;44.534;18.700;2023-04-03T11:31:36;7.07;;;5.10;;
25511;SDS011;13414;44.534;18.700;2023-04-03T11:34:21;10.13;;;7.20;;
25511;SDS011;13414;44.534;18.700;2023-04-03T11:36:59;11.98;;;8.55;;
25511;SDS011;13414;44.534;18.700;2023-04-03T11:39:32;10.63;;;7.32;;
25511;SDS011;13414;44.534;18.700;2023-04-03T11:42:13;9.55;;;6.38;;
25511;SDS011;13414;44.534;18.700;2023-04-03T11:44:43;8.40;;;6.13;;
25511;SDS011;13414;44.534;18.700;2023-04-03T11:47:12;8.38;;;6.50;;
25511;SDS011;13414;44.534;18.700;2023-04-03T11:53:26;9.25;;;7.55;;
25511;SDS011;13414;44.534;18.700;2023-04-03T11:56:03;11.35;;;8.48;;
25511;SDS011;13414;44.534;18.700;2023-04-03T12:01:44;11.82;;;10.07;;
25511;SDS011;13414;44.534;18.700;2023-04-03T12:04:14;17.23;;;13.57;;
25511;SDS011;13414;44.534;18.700;2023-04-03T12:12:41;16.42;;;13.75;;
25511;SDS011;13414;44.534;18.700;2023-04-03T12:15:16;18.40;;;14.18;;
25511;SDS011;13414;44.534;18.700;2023-04-03T12:17:48;20.05;;;14.90;;
25511;SDS011;13414;44.534;18.700;2023-04-03T12:23:28;19.88;;;14.65;;
25511;SDS011;13414;44.534;18.700;2023-04-03T12:26:05;17.27;;;13.25;;
25511;SDS011;13414;44.534;18.700;2023-04-03T12:28:47;18.35;;;14.30;;
25511;SDS011;13414;44.534;18.700;2023-04-03T12:31:16;19.85;;;14.38;;
25511;SDS011;13414;44.534;18.700;2023-04-03T12:33:56;21.98;;;13.85;;
25511;SDS011;13414;44.534;18.700;2023-04-03T12:36:36;19.88;;;14.57;;
25511;SDS011;13414;44.534;18.700;2023-04-03T12:42:25;19.83;;;14.52;;
25511;SDS011;13414;44.534;18.700;2023-04-03T12:45:22;23.20;;;15.02;;
25511;SDS011;13414;44.534;18.700;2023-04-03T12:47:51;19.08;;;14.73;;
25511;SDS011;13414;44.534;18.700;2023-04-03T12:50:21;20.50;;;14.45;;
25511;SDS011;13414;44.534;18.700;2023-04-03T12:52:54;20.02;;;13.45;;
25511;SDS011;13414;44.534;18.700;2023-04-03T12:55:25;21.85;;;15.35;;
25511;SDS011;13414;44.534;18.700;2023-04-03T12:57:53;21.25;;;15.20;;
25511;SDS011;13414;44.534;18.700;2023-04-03T13:00:22;22.00;;;16.55;;
25511;SDS011;13414;44.534;18.700;2023-04-03T13:02:58;21.15;;;15.45;;
25511;SDS011;13414;44.534;18.700;2023-04-03T13:05:26;19.83;;;14.50;;
25511;SDS011;13414;44.534;18.700;2023-04-03T13:07:57;21.75;;;14.15;;
25511;SDS011;13414;44.534;18.700;2023-04-03T13:10:28;30.33;;;19.55;;
25511;SDS011;13414;44.534;18.700;2023-04-03T13:12:57;20.50;;;16.85;;
25511;SDS011;13414;44.534;18.700;2023-04-03T13:15:27;22.80;;;16.08;;
25511;SDS011;13414;44.534;18.700;2023-04-03T13:17:56;21.63;;;16.15;;
25511;SDS011;13414;44.534;18.700;2023-04-03T13:20:25;29.20;;;17.95;;
25511;SDS011;13414;44.534;18.700;2023-04-03T13:22:58;23.08;;;16.77;;
25511;SDS011;13414;44.534;18.700;2023-04-03T13:25:30;22.55;;;16.13;;
25511;SDS011;13414;44.534;18.700;2023-04-03T13:28:05;24.10;;;16.70;;
25511;SDS011;13414;44.534;18.700;2023-04-03T13:30:34;20.67;;;16.58;;
25511;SDS011;13414;44.534;18.700;2023-04-03T13:33:04;27.48;;;19.77;;
25511;SDS011;13414;44.534;18.700;2023-04-03T13:35:46;27.40;;;20.40;;
25511;SDS011;13414;44.534;18.700;2023-04-03T13:38:23;27.63;;;19.70;;
25511;SDS011;13414;44.534;18.700;2023-04-03T13:40:53;24.88;;;18.40;;
25511;SDS011;13414;44.534;18.700;2023-04-03T13:43:23;70.95;;;43.63;;
25511;SDS011;13414;44.534;18.700;2023-04-03T13:45:57;30.60;;;22.67;;
25511;SDS011;13414;44.534;18.700;2023-04-03T13:48:48;31.70;;;22.88;;
25511;SDS011;13414;44.534;18.700;2023-04-03T13:51:18;36.60;;;26.05;;
25511;SDS011;13414;44.534;18.700;2023-04-03T13:53:51;27.45;;;20.65;;
25511;SDS011;13414;44.534;18.700;2023-04-03T13:56:27;46.10;;;21.95;;
25511;SDS011;13414;44.534;18.700;2023-04-03T13:59:00;24.73;;;17.63;;
25511;SDS011;13414;44.534;18.700;2023-04-03T14:01:49;20.95;;;14.60;;
25511;SDS011;13414;44.534;18.700;2023-04-03T14:04:20;19.67;;;14.85;;
25511;SDS011;13414;44.534;18.700;2023-04-03T14:06:49;19.92;;;14.98;;
25511;SDS011;13414;44.534;18.700;2023-04-03T14:09:18;31.77;;;24.52;;
25511;SDS011;13414;44.534;18.700;2023-04-03T14:11:47;23.65;;;18.20;;
25511;SDS011;13414;44.534;18.700;2023-04-03T14:14:17;18.80;;;13.90;;
25511;SDS011;13414;44.534;18.700;2023-04-03T14:16:47;18.10;;;14.18;;
25511;SDS011;13414;44.534;18.700;2023-04-03T14:19:19;22.80;;;16.35;;
25511;SDS011;13414;44.534;18.700;2023-04-03T14:21:49;23.85;;;17.20;;
25511;SDS011;13414;44.534;18.700;2023-04-03T14:24:20;22.65;;;16.20;;
25511;SDS011;13414;44.534;18.700;2023-04-03T14:26:48;21.35;;;17.55;;
25511;SDS011;13414;44.534;18.700;2023-04-03T14:29:17;23.00;;;17.30;;
25511;SDS011;13414;44.534;18.700;2023-04-03T14:31:46;22.67;;;16.48;;
25511;SDS011;13414;44.534;18.700;2023-04-03T14:34:15;23.27;;;18.02;;
25511;SDS011;13414;44.534;18.700;2023-04-03T14:36:44;17.63;;;13.90;;
25511;SDS011;13414;44.534;18.700;2023-04-03T14:39:16;16.25;;;13.27;;
25511;SDS011;13414;44.534;18.700;2023-04-03T14:41:46;17.67;;;13.77;;
25511;SDS011;13414;44.534;18.700;2023-04-03T14:44:14;21.35;;;15.20;;
25511;SDS011;13414;44.534;18.700;2023-04-03T14:46:42;22.70;;;17.55;;
25511;SDS011;13414;44.534;18.700;2023-04-03T14:49:12;28.85;;;19.25;;
25511;SDS011;13414;44.534;18.700;2023-04-03T14:51:42;25.20;;;17.67;;
25511;SDS011;13414;44.534;18.700;2023-04-03T14:54:12;22.67;;;17.10;;
25511;SDS011;13414;44.534;18.700;2023-04-03T14:56:40;24.02;;;17.77;;
25511;SDS011;13414;44.534;18.700;2023-04-03T14:59:11;32.35;;;21.80;;